sensor_id;sensor_type;location;lat;lon;timestamp;temperature;humidity
17202;DHT22;8717;53.588;10.176;2024-03-23T00:55:53;6.20;99.90
17202;DHT22;8717;53.588;10.176;2024-03-23T00:58:18;6.20;99.90
17202;DHT22;8717;53.588;10.176;2024-03-23T01:00:44;6.20;99.90
17202;DHT22;8717;53.588;10.176;2024-03-23T01:03:09;6.20;99.90
17202;DHT22;8717;53.588;10.176;2024-03-23T01:05:35;6.20;99.90
17202;DHT22;8717;53.588;10.176;2024-03-23T01:08:00;6.20;99.90
17202;DHT22;8717;53.588;10.176;2024-03-23T01:10:26;6.20;99.90
17202;DHT22;8717;53.588;10.176;2024-03-23T01:12:51;6.20;99.90
17202;DHT22;8717;53.588;10.176;2024-03-23T01:15:17;6.20;99.90
17202;DHT22;8717;53.588;10.176;2024-03-23T01:17:42;6.20;99.90
17202;DHT22;8717;53.588;10.176;2024-03-23T01:20:08;6.10;99.90
17202;DHT22;8717;53.588;10.176;2024-03-23T01:22:33;6.10;99.90
17202;DHT22;8717;53.588;10.176;2024-03-23T01:24:59;6.10;99.90
17202;DHT22;8717;53.588;10.176;2024-03-23T01:27:24;6.00;99.90
17202;DHT22;8717;53.588;10.176;2024-03-23T01:29:50;6.00;99.90
17202;DHT22;8717;53.588;10.176;2024-03-23T01:32:16;6.00;99.90
17202;DHT22;8717;53.588;10.176;2024-03-23T01:34:41;6.10;99.90
17202;DHT22;8717;53.588;10.176;2024-03-23T01:37:07;6.00;99.90
17202;DHT22;8717;53.588;10.176;2024-03-23T01:39:32;6.00;99.90
17202;DHT22;8717;53.588;10.176;2024-03-23T01:41:58;6.00;99.90
17202;DHT22;8717;53.588;10.176;2024-03-23T01:44:23;5.90;99.90
17202;DHT22;8717;53.588;10.176;2024-03-23T01:46:49;5.90;99.90
17202;DHT22;8717;53.588;10.176;2024-03-23T01:49:15;5.90;99.90
17202;DHT22;8717;53.588;10.176;2024-03-23T01:51:41;5.90;99.90
17202;DHT22;8717;53.588;10.176;2024-03-23T01:54:08;5.90;99.90
17202;DHT22;8717;53.588;10.176;2024-03-23T01:56:34;5.90;99.90
17202;DHT22;8717;53.588;10.176;2024-03-23T01:58:59;5.80;99.90
17202;DHT22;8717;53.588;10.176;2024-03-23T02:01:25;5.90;99.90
17202;DHT22;8717;53.588;10.176;2024-03-23T02:03:50;5.80;99.90
17202;DHT22;8717;53.588;10.176;2024-03-23T02:06:16;5.80;99.90
17202;DHT22;8717;53.588;10.176;2024-03-23T02:08:43;5.70;99.90
17202;DHT22;8717;53.588;10.176;2024-03-23T02:11:09;5.70;99.90
17202;DHT22;8717;53.588;10.176;2024-03-23T02:13:34;5.70;99.90
17202;DHT22;8717;53.588;10.176;2024-03-23T02:16:00;5.70;99.90
17202;DHT22;8717;53.588;10.176;2024-03-23T02:18:25;5.60;99.90
17202;DHT22;8717;53.588;10.176;2024-03-23T02:20:51;5.60;99.90
17202;DHT22;8717;53.588;10.176;2024-03-23T02:23:17;5.60;99.90
17202;DHT22;8717;53.588;10.176;2024-03-23T02:25:43;5.60;99.90
17202;DHT22;8717;53.588;10.176;2024-03-23T02:28:08;5.60;99.90
17202;DHT22;8717;53.588;10.176;2024-03-23T02:30:34;5.50;99.90
17202;DHT22;8717;53.588;10.176;2024-03-23T02:32:59;5.50;99.90
17202;DHT22;8717;53.588;10.176;2024-03-23T02:35:25;5.50;99.90
17202;DHT22;8717;53.588;10.176;2024-03-23T02:37:50;5.50;99.90
17202;DHT22;8717;53.588;10.176;2024-03-23T02:40:20;5.50;99.90
17202;DHT22;8717;53.588;10.176;2024-03-23T02:42:45;5.50;99.90
17202;DHT22;8717;53.588;10.176;2024-03-23T02:45:11;5.50;99.90
17202;DHT22;8717;53.588;10.176;2024-03-23T02:47:36;5.40;99.90
17202;DHT22;8717;53.588;10.176;2024-03-23T02:50:02;5.40;99.90
17202;DHT22;8717;53.588;10.176;2024-03-23T02:52:27;5.40;99.90
17202;DHT22;8717;53.588;10.176;2024-03-23T02:54:53;5.40;99.90
17202;DHT22;8717;53.588;10.176;2024-03-23T02:57:18;5.40;99.90
17202;DHT22;8717;53.588;10.176;2024-03-23T02:59:44;5.30;99.90
17202;DHT22;8717;53.588;10.176;2024-03-23T03:02:09;5.30;99.90
17202;DHT22;8717;53.588;10.176;2024-03-23T03:04:35;5.20;99.90
17202;DHT22;8717;53.588;10.176;2024-03-23T03:07:00;5.20;99.90
17202;DHT22;8717;53.588;10.176;2024-03-23T03:09:26;5.20;99.90
17202;DHT22;8717;53.588;10.176;2024-03-23T03:11:51;5.20;99.90
17202;DHT22;8717;53.588;10.176;2024-03-23T03:14:17;5.20;99.90
17202;DHT22;8717;53.588;10.176;2024-03-23T03:16:42;5.20;99.90
17202;DHT22;8717;53.588;10.176;2024-03-23T03:19:08;5.20;99.90
17202;DHT22;8717;53.588;10.176;2024-03-23T03:21:33;5.10;99.90
17202;DHT22;8717;53.588;10.176;2024-03-23T03:23:59;5.10;99.90
17202;DHT22;8717;53.588;10.176;2024-03-23T03:26:24;5.10;99.90
17202;DHT22;8717;53.588;10.176;2024-03-23T03:28:50;5.10;99.90
17202;DHT22;8717;53.588;10.176;2024-03-23T03:31:16;5.10;99.90
17202;DHT22;8717;53.588;10.176;2024-03-23T03:33:42;5.10;99.90
17202;DHT22;8717;53.588;10.176;2024-03-23T03:36:07;5.10;99.90
17202;DHT22;8717;53.588;10.176;2024-03-23T03:38:33;5.10;99.90
17202;DHT22;8717;53.588;10.176;2024-03-23T03:40:58;5.10;99.90
17202;DHT22;8717;53.588;10.176;2024-03-23T03:43:24;5.10;99.90
17202;DHT22;8717;53.588;10.176;2024-03-23T03:45:53;5.00;99.90
17202;DHT22;8717;53.588;10.176;2024-03-23T03:48:19;5.00;99.90
17202;DHT22;8717;53.588;10.176;2024-03-23T03:50:45;5.10;99.90
17202;DHT22;8717;53.588;10.176;2024-03-23T03:53:10;5.10;99.90
17202;DHT22;8717;53.588;10.176;2024-03-23T03:55:36;5.00;99.90
17202;DHT22;8717;53.588;10.176;2024-03-23T03:58:01;5.00;99.90
17202;DHT22;8717;53.588;10.176;2024-03-23T04:00:27;5.00;99.90
17202;DHT22;8717;53.588;10.176;2024-03-23T04:02:53;5.00;99.90
17202;DHT22;8717;53.588;10.176;2024-03-23T04:05:18;5.00;99.90
17202;DHT22;8717;53.588;10.176;2024-03-23T04:07:44;5.00;99.90
17202;DHT22;8717;53.588;10.176;2024-03-23T04:10:09;5.00;99.90
17202;DHT22;8717;53.588;10.176;2024-03-23T04:12:35;5.00;99.90
17202;DHT22;8717;53.588;10.176;2024-03-23T04:15:01;5.00;99.90
17202;DHT22;8717;53.588;10.176;2024-03-23T04:17:27;5.00;99.90
17202;DHT22;8717;53.588;10.176;2024-03-23T04:19:52;4.90;99.90
17202;DHT22;8717;53.588;10.176;2024-03-23T04:22:18;4.90;99.90
17202;DHT22;8717;53.588;10.176;2024-03-23T04:24:43;4.90;99.90
17202;DHT22;8717;53.588;10.176;2024-03-23T04:27:08;4.90;99.90
17202;DHT22;8717;53.588;10.176;2024-03-23T04:29:34;4.90;99.90
17202;DHT22;8717;53.588;10.176;2024-03-23T04:31:59;4.90;99.90
17202;DHT22;8717;53.588;10.176;2024-03-23T04:34:25;4.80;99.90
17202;DHT22;8717;53.588;10.176;2024-03-23T04:36:53;4.80;99.90
17202;DHT22;8717;53.588;10.176;2024-03-23T04:39:18;4.80;99.90
17202;DHT22;8717;53.588;10.176;2024-03-23T04:41:44;4.80;99.90
17202;DHT22;8717;53.588;10.176;2024-03-23T04:44:09;4.80;99.90
17202;DHT22;8717;53.588;10.176;2024-03-23T04:46:35;4.80;99.90
17202;DHT22;8717;53.588;10.176;2024-03-23T04:49:00;4.80;99.90
17202;DHT22;8717;53.588;10.176;2024-03-23T04:51:26;4.80;99.90
17202;DHT22;8717;53.588;10.176;2024-03-23T04:53:51;4.80;99.90
17202;DHT22;8717;53.588;10.176;2024-03-23T04:56:17;4.80;99.90
17202;DHT22;8717;53.588;10.176;2024-03-23T04:58:43;4.70;99.90
17202;DHT22;8717;53.588;10.176;2024-03-23T05:01:10;4.70;99.90
17202;DHT22;8717;53.588;10.176;2024-03-23T05:03:37;4.70;99.90
17202;DHT22;8717;53.588;10.176;2024-03-23T05:06:03;4.70;99.90
17202;DHT22;8717;53.588;10.176;2024-03-23T05:08:28;4.70;99.90
17202;DHT22;8717;53.588;10.176;2024-03-23T05:10:54;4.70;99.90
17202;DHT22;8717;53.588;10.176;2024-03-23T05:13:19;4.70;99.90
17202;DHT22;8717;53.588;10.176;2024-03-23T05:15:52;4.70;99.90
17202;DHT22;8717;53.588;10.176;2024-03-23T05:18:17;4.70;99.90
17202;DHT22;8717;53.588;10.176;2024-03-23T05:20:43;4.70;99.90
17202;DHT22;8717;53.588;10.176;2024-03-23T05:23:08;4.70;99.90
17202;DHT22;8717;53.588;10.176;2024-03-23T05:25:34;4.70;99.90
17202;DHT22;8717;53.588;10.176;2024-03-23T05:27:59;4.70;99.90
17202;DHT22;8717;53.588;10.176;2024-03-23T05:30:24;4.70;99.90
17202;DHT22;8717;53.588;10.176;2024-03-23T05:32:50;4.70;99.90
17202;DHT22;8717;53.588;10.176;2024-03-23T05:35:15;4.80;99.90
17202;DHT22;8717;53.588;10.176;2024-03-23T05:37:41;4.80;99.90
17202;DHT22;8717;53.588;10.176;2024-03-23T05:40:07;4.80;99.90
17202;DHT22;8717;53.588;10.176;2024-03-23T05:42:32;4.80;99.90
17202;DHT22;8717;53.588;10.176;2024-03-23T05:44:58;4.80;99.90
17202;DHT22;8717;53.588;10.176;2024-03-23T05:47:23;4.80;99.90
17202;DHT22;8717;53.588;10.176;2024-03-23T05:49:49;4.80;99.90
17202;DHT22;8717;53.588;10.176;2024-03-23T05:52:14;4.80;99.90
17202;DHT22;8717;53.588;10.176;2024-03-23T05:54:40;4.80;99.90
17202;DHT22;8717;53.588;10.176;2024-03-23T05:57:05;4.80;99.90
17202;DHT22;8717;53.588;10.176;2024-03-23T05:59:31;4.80;99.90
17202;DHT22;8717;53.588;10.176;2024-03-23T06:01:57;4.90;99.90
17202;DHT22;8717;53.588;10.176;2024-03-23T06:04:23;4.90;99.90
17202;DHT22;8717;53.588;10.176;2024-03-23T06:06:48;4.90;99.90
17202;DHT22;8717;53.588;10.176;2024-03-23T06:09:14;4.90;99.90
17202;DHT22;8717;53.588;10.176;2024-03-23T06:11:39;4.90;99.90
17202;DHT22;8717;53.588;10.176;2024-03-23T06:14:05;5.00;99.90
17202;DHT22;8717;53.588;10.176;2024-03-23T06:16:30;5.00;99.90
17202;DHT22;8717;53.588;10.176;2024-03-23T06:18:56;5.00;99.90
17202;DHT22;8717;53.588;10.176;2024-03-23T06:21:21;5.00;99.90
17202;DHT22;8717;53.588;10.176;2024-03-23T06:23:47;5.20;99.90
17202;DHT22;8717;53.588;10.176;2024-03-23T06:26:13;5.20;99.90
17202;DHT22;8717;53.588;10.176;2024-03-23T06:28:38;5.20;99.90
17202;DHT22;8717;53.588;10.176;2024-03-23T06:31:09;5.30;99.90
17202;DHT22;8717;53.588;10.176;2024-03-23T06:33:35;5.40;99.90
17202;DHT22;8717;53.588;10.176;2024-03-23T06:36:00;5.50;99.90
17202;DHT22;8717;53.588;10.176;2024-03-23T06:38:26;5.50;99.90
17202;DHT22;8717;53.588;10.176;2024-03-23T06:40:51;5.60;99.90
17202;DHT22;8717;53.588;10.176;2024-03-23T06:43:17;5.70;99.90
17202;DHT22;8717;53.588;10.176;2024-03-23T06:45:42;5.80;99.90
17202;DHT22;8717;53.588;10.176;2024-03-23T06:48:08;5.90;99.90
17202;DHT22;8717;53.588;10.176;2024-03-23T06:50:34;6.00;99.90
17202;DHT22;8717;53.588;10.176;2024-03-23T06:52:59;6.10;99.90
17202;DHT22;8717;53.588;10.176;2024-03-23T06:55:25;6.30;99.90
17202;DHT22;8717;53.588;10.176;2024-03-23T06:57:51;6.40;99.90
17202;DHT22;8717;53.588;10.176;2024-03-23T07:00:16;6.50;99.90
17202;DHT22;8717;53.588;10.176;2024-03-23T07:02:42;6.70;99.90
17202;DHT22;8717;53.588;10.176;2024-03-23T07:05:07;6.80;99.90
17202;DHT22;8717;53.588;10.176;2024-03-23T07:07:33;6.90;99.90
17202;DHT22;8717;53.588;10.176;2024-03-23T07:09:58;7.00;99.90
17202;DHT22;8717;53.588;10.176;2024-03-23T07:12:24;7.10;99.90
17202;DHT22;8717;53.588;10.176;2024-03-23T07:14:49;7.20;99.90
17202;DHT22;8717;53.588;10.176;2024-03-23T07:17:15;7.20;99.90
17202;DHT22;8717;53.588;10.176;2024-03-23T07:19:40;7.20;99.90
17202;DHT22;8717;53.588;10.176;2024-03-23T07:22:05;7.10;99.90
17202;DHT22;8717;53.588;10.176;2024-03-23T07:24:31;7.10;99.90
17202;DHT22;8717;53.588;10.176;2024-03-23T07:26:56;7.10;99.90
17202;DHT22;8717;53.588;10.176;2024-03-23T07:29:22;7.10;99.90
17202;DHT22;8717;53.588;10.176;2024-03-23T07:31:47;7.10;99.90
17202;DHT22;8717;53.588;10.176;2024-03-23T07:34:13;7.10;99.90
17202;DHT22;8717;53.588;10.176;2024-03-23T07:36:38;7.20;99.90
17202;DHT22;8717;53.588;10.176;2024-03-23T07:39:04;7.30;99.90
17202;DHT22;8717;53.588;10.176;2024-03-23T07:41:29;7.40;99.90
17202;DHT22;8717;53.588;10.176;2024-03-23T07:43:55;7.40;99.90
17202;DHT22;8717;53.588;10.176;2024-03-23T07:46:20;7.50;99.90
17202;DHT22;8717;53.588;10.176;2024-03-23T07:48:46;7.60;99.90
17202;DHT22;8717;53.588;10.176;2024-03-23T07:51:16;7.70;99.90
17202;DHT22;8717;53.588;10.176;2024-03-23T07:53:44;7.80;99.90
17202;DHT22;8717;53.588;10.176;2024-03-23T07:56:10;8.00;99.90
17202;DHT22;8717;53.588;10.176;2024-03-23T07:58:36;8.30;99.90
17202;DHT22;8717;53.588;10.176;2024-03-23T08:01:06;8.60;99.90
17202;DHT22;8717;53.588;10.176;2024-03-23T08:03:32;8.80;99.90
17202;DHT22;8717;53.588;10.176;2024-03-23T08:05:57;8.90;99.90
17202;DHT22;8717;53.588;10.176;2024-03-23T08:08:23;9.10;99.90
17202;DHT22;8717;53.588;10.176;2024-03-23T08:10:52;9.20;99.90
17202;DHT22;8717;53.588;10.176;2024-03-23T08:13:18;9.30;99.90
17202;DHT22;8717;53.588;10.176;2024-03-23T08:15:44;9.50;99.90
17202;DHT22;8717;53.588;10.176;2024-03-23T08:18:13;9.70;99.90
17202;DHT22;8717;53.588;10.176;2024-03-23T08:20:39;9.90;99.90
17202;DHT22;8717;53.588;10.176;2024-03-23T08:23:07;10.20;99.90
17202;DHT22;8717;53.588;10.176;2024-03-23T08:25:34;10.30;99.90
17202;DHT22;8717;53.588;10.176;2024-03-23T08:28:00;10.40;99.90
17202;DHT22;8717;53.588;10.176;2024-03-23T08:30:26;10.60;99.90
17202;DHT22;8717;53.588;10.176;2024-03-23T08:32:51;10.80;99.90
17202;DHT22;8717;53.588;10.176;2024-03-23T08:35:17;11.10;99.90
17202;DHT22;8717;53.588;10.176;2024-03-23T08:37:42;11.40;99.90
17202;DHT22;8717;53.588;10.176;2024-03-23T08:40:08;11.70;99.90
17202;DHT22;8717;53.588;10.176;2024-03-23T08:42:35;12.00;99.90
17202;DHT22;8717;53.588;10.176;2024-03-23T08:45:00;12.30;99.90
17202;DHT22;8717;53.588;10.176;2024-03-23T08:47:26;12.60;99.90
17202;DHT22;8717;53.588;10.176;2024-03-23T08:49:51;12.80;99.90
17202;DHT22;8717;53.588;10.176;2024-03-23T08:52:17;13.00;99.90
17202;DHT22;8717;53.588;10.176;2024-03-23T08:54:42;13.00;99.90
17202;DHT22;8717;53.588;10.176;2024-03-23T08:57:09;13.10;99.90
17202;DHT22;8717;53.588;10.176;2024-03-23T08:59:34;13.10;99.90
17202;DHT22;8717;53.588;10.176;2024-03-23T09:02:00;13.20;99.90
17202;DHT22;8717;53.588;10.176;2024-03-23T09:04:25;13.20;99.90
17202;DHT22;8717;53.588;10.176;2024-03-23T09:06:51;13.30;99.90
17202;DHT22;8717;53.588;10.176;2024-03-23T09:09:16;13.50;99.90
17202;DHT22;8717;53.588;10.176;2024-03-23T09:11:42;13.80;99.90
17202;DHT22;8717;53.588;10.176;2024-03-23T09:14:08;14.00;99.90
17202;DHT22;8717;53.588;10.176;2024-03-23T09:16:33;14.20;99.90
17202;DHT22;8717;53.588;10.176;2024-03-23T09:18:59;14.30;99.90
17202;DHT22;8717;53.588;10.176;2024-03-23T09:21:24;14.40;99.90
17202;DHT22;8717;53.588;10.176;2024-03-23T09:23:49;14.30;99.90
17202;DHT22;8717;53.588;10.176;2024-03-23T09:26:15;14.20;99.90
17202;DHT22;8717;53.588;10.176;2024-03-23T09:28:40;14.00;99.60
17202;DHT22;8717;53.588;10.176;2024-03-23T09:31:07;13.70;99.90
17202;DHT22;8717;53.588;10.176;2024-03-23T09:33:36;13.70;99.90
17202;DHT22;8717;53.588;10.176;2024-03-23T09:36:05;13.60;99.50
17202;DHT22;8717;53.588;10.176;2024-03-23T09:38:31;13.60;99.80
17202;DHT22;8717;53.588;10.176;2024-03-23T09:40:57;13.70;99.20
17202;DHT22;8717;53.588;10.176;2024-03-23T09:43:23;13.60;98.60
17202;DHT22;8717;53.588;10.176;2024-03-23T09:45:49;13.50;98.90
17202;DHT22;8717;53.588;10.176;2024-03-23T09:48:15;13.30;98.20
17202;DHT22;8717;53.588;10.176;2024-03-23T09:50:43;13.10;98.30
17202;DHT22;8717;53.588;10.176;2024-03-23T09:53:10;12.80;97.80
17202;DHT22;8717;53.588;10.176;2024-03-23T09:55:36;12.50;98.10
17202;DHT22;8717;53.588;10.176;2024-03-23T09:58:02;12.30;98.50
17202;DHT22;8717;53.588;10.176;2024-03-23T10:00:28;12.30;99.30
17202;DHT22;8717;53.588;10.176;2024-03-23T10:02:57;12.40;99.70
17202;DHT22;8717;53.588;10.176;2024-03-23T10:05:23;12.60;99.30
17202;DHT22;8717;53.588;10.176;2024-03-23T10:07:52;12.90;99.50
17202;DHT22;8717;53.588;10.176;2024-03-23T10:10:18;13.20;99.20
17202;DHT22;8717;53.588;10.176;2024-03-23T10:12:48;13.70;99.70
17202;DHT22;8717;53.588;10.176;2024-03-23T10:15:18;14.00;98.00
17202;DHT22;8717;53.588;10.176;2024-03-23T10:17:44;14.30;97.10
17202;DHT22;8717;53.588;10.176;2024-03-23T10:20:10;14.40;96.20
17202;DHT22;8717;53.588;10.176;2024-03-23T10:22:37;14.30;96.60
17202;DHT22;8717;53.588;10.176;2024-03-23T10:25:11;14.10;96.40
17202;DHT22;8717;53.588;10.176;2024-03-23T10:27:37;13.80;95.70
17202;DHT22;8717;53.588;10.176;2024-03-23T10:30:13;13.50;95.80
17202;DHT22;8717;53.588;10.176;2024-03-23T10:32:39;13.20;95.90
17202;DHT22;8717;53.588;10.176;2024-03-23T10:35:18;13.20;97.30
17202;DHT22;8717;53.588;10.176;2024-03-23T10:37:44;13.10;96.90
17202;DHT22;8717;53.588;10.176;2024-03-23T10:40:12;13.30;97.80
17202;DHT22;8717;53.588;10.176;2024-03-23T10:42:38;13.30;97.80
17202;DHT22;8717;53.588;10.176;2024-03-23T10:45:05;13.50;97.80
17202;DHT22;8717;53.588;10.176;2024-03-23T10:47:31;13.60;97.40
17202;DHT22;8717;53.588;10.176;2024-03-23T10:49:57;13.60;96.70
17202;DHT22;8717;53.588;10.176;2024-03-23T10:52:22;13.50;96.60
17202;DHT22;8717;53.588;10.176;2024-03-23T10:54:51;13.40;96.10
17202;DHT22;8717;53.588;10.176;2024-03-23T10:57:20;13.10;95.60
17202;DHT22;8717;53.588;10.176;2024-03-23T10:59:48;12.90;96.70
17202;DHT22;8717;53.588;10.176;2024-03-23T11:02:21;12.60;97.40
17202;DHT22;8717;53.588;10.176;2024-03-23T11:04:47;12.20;98.00
17202;DHT22;8717;53.588;10.176;2024-03-23T11:09:50;11.70;99.20
17202;DHT22;8717;53.588;10.176;2024-03-23T11:14:48;11.40;98.90
17202;DHT22;8717;53.588;10.176;2024-03-23T11:17:18;11.30;98.90
17202;DHT22;8717;53.588;10.176;2024-03-23T11:19:44;11.10;98.80
17202;DHT22;8717;53.588;10.176;2024-03-23T11:22:10;11.00;98.50
17202;DHT22;8717;53.588;10.176;2024-03-23T11:24:35;10.80;99.20
17202;DHT22;8717;53.588;10.176;2024-03-23T11:27:01;10.80;99.90
17202;DHT22;8717;53.588;10.176;2024-03-23T11:29:26;10.90;99.90
17202;DHT22;8717;53.588;10.176;2024-03-23T11:31:53;11.10;99.90
17202;DHT22;8717;53.588;10.176;2024-03-23T11:34:21;11.40;99.90
17202;DHT22;8717;53.588;10.176;2024-03-23T11:36:47;11.70;99.90
17202;DHT22;8717;53.588;10.176;2024-03-23T11:39:14;12.10;99.90
17202;DHT22;8717;53.588;10.176;2024-03-23T11:41:50;12.60;99.90
17202;DHT22;8717;53.588;10.176;2024-03-23T11:44:23;13.00;98.50
17202;DHT22;8717;53.588;10.176;2024-03-23T11:46:49;13.40;98.50
17202;DHT22;8717;53.588;10.176;2024-03-23T11:49:28;13.80;97.70
17202;DHT22;8717;53.588;10.176;2024-03-23T11:51:55;13.90;94.70
17202;DHT22;8717;53.588;10.176;2024-03-23T11:54:26;14.10;94.90
17202;DHT22;8717;53.588;10.176;2024-03-23T11:57:02;14.20;95.10
17202;DHT22;8717;53.588;10.176;2024-03-23T11:59:38;14.20;95.20
17202;DHT22;8717;53.588;10.176;2024-03-23T12:02:11;14.40;95.30
17202;DHT22;8717;53.588;10.176;2024-03-23T12:04:37;14.60;94.20
17202;DHT22;8717;53.588;10.176;2024-03-23T12:07:17;14.70;94.60
17202;DHT22;8717;53.588;10.176;2024-03-23T12:09:42;14.90;93.70
17202;DHT22;8717;53.588;10.176;2024-03-23T12:12:16;15.10;94.60
17202;DHT22;8717;53.588;10.176;2024-03-23T12:14:45;15.30;94.20
17202;DHT22;8717;53.588;10.176;2024-03-23T12:17:25;15.40;93.50
17202;DHT22;8717;53.588;10.176;2024-03-23T12:19:51;15.30;92.40
17202;DHT22;8717;53.588;10.176;2024-03-23T12:22:20;14.90;91.90
17202;DHT22;8717;53.588;10.176;2024-03-23T12:24:46;14.30;92.20
17202;DHT22;8717;53.588;10.176;2024-03-23T12:27:11;13.60;93.00
17202;DHT22;8717;53.588;10.176;2024-03-23T12:29:37;12.80;94.30
17202;DHT22;8717;53.588;10.176;2024-03-23T12:32:02;12.00;95.70
17202;DHT22;8717;53.588;10.176;2024-03-23T12:34:28;11.40;97.60
17202;DHT22;8717;53.588;10.176;2024-03-23T12:36:54;10.90;99.90
17202;DHT22;8717;53.588;10.176;2024-03-23T12:39:20;10.60;99.90
17202;DHT22;8717;53.588;10.176;2024-03-23T12:41:45;10.30;99.90
17202;DHT22;8717;53.588;10.176;2024-03-23T12:44:11;10.10;99.90
17202;DHT22;8717;53.588;10.176;2024-03-23T12:46:37;10.00;99.90
17202;DHT22;8717;53.588;10.176;2024-03-23T12:49:03;9.90;99.90
17202;DHT22;8717;53.588;10.176;2024-03-23T12:51:28;9.80;99.90
17202;DHT22;8717;53.588;10.176;2024-03-23T12:53:54;9.70;99.90
17202;DHT22;8717;53.588;10.176;2024-03-23T12:56:19;9.70;99.90
17202;DHT22;8717;53.588;10.176;2024-03-23T12:58:44;9.60;99.90
17202;DHT22;8717;53.588;10.176;2024-03-23T13:01:10;9.30;99.90
17202;DHT22;8717;53.588;10.176;2024-03-23T13:03:35;9.10;99.90
17202;DHT22;8717;53.588;10.176;2024-03-23T13:06:01;8.70;99.90
17202;DHT22;8717;53.588;10.176;2024-03-23T13:08:27;8.40;99.90
17202;DHT22;8717;53.588;10.176;2024-03-23T13:10:52;8.00;99.90
17202;DHT22;8717;53.588;10.176;2024-03-23T13:13:18;7.80;99.90
17202;DHT22;8717;53.588;10.176;2024-03-23T13:15:50;7.50;99.90
17202;DHT22;8717;53.588;10.176;2024-03-23T13:18:15;7.30;99.90
17202;DHT22;8717;53.588;10.176;2024-03-23T13:20:41;7.10;99.90
17202;DHT22;8717;53.588;10.176;2024-03-23T13:23:06;7.00;99.90
17202;DHT22;8717;53.588;10.176;2024-03-23T13:25:32;6.90;99.90
17202;DHT22;8717;53.588;10.176;2024-03-23T13:27:57;6.80;99.90
17202;DHT22;8717;53.588;10.176;2024-03-23T13:30:23;6.70;99.90
17202;DHT22;8717;53.588;10.176;2024-03-23T13:32:48;6.70;99.90
17202;DHT22;8717;53.588;10.176;2024-03-23T13:35:14;6.80;99.90
17202;DHT22;8717;53.588;10.176;2024-03-23T13:37:39;6.90;99.90
17202;DHT22;8717;53.588;10.176;2024-03-23T13:40:06;7.00;99.90
17202;DHT22;8717;53.588;10.176;2024-03-23T13:42:32;7.10;99.90
17202;DHT22;8717;53.588;10.176;2024-03-23T13:44:57;7.20;99.90
17202;DHT22;8717;53.588;10.176;2024-03-23T13:47:23;7.30;99.90
17202;DHT22;8717;53.588;10.176;2024-03-23T13:49:48;7.40;99.90
17202;DHT22;8717;53.588;10.176;2024-03-23T13:52:14;7.50;99.90
17202;DHT22;8717;53.588;10.176;2024-03-23T13:54:39;7.50;99.90
17202;DHT22;8717;53.588;10.176;2024-03-23T13:57:05;7.50;99.90
17202;DHT22;8717;53.588;10.176;2024-03-23T13:59:30;7.60;99.90
17202;DHT22;8717;53.588;10.176;2024-03-23T14:01:56;7.80;99.90
17202;DHT22;8717;53.588;10.176;2024-03-23T14:04:21;7.90;99.90
17202;DHT22;8717;53.588;10.176;2024-03-23T14:06:47;8.10;99.90
17202;DHT22;8717;53.588;10.176;2024-03-23T14:09:15;8.20;99.90
17202;DHT22;8717;53.588;10.176;2024-03-23T14:11:41;8.30;99.90
17202;DHT22;8717;53.588;10.176;2024-03-23T14:14:07;8.30;99.90
17202;DHT22;8717;53.588;10.176;2024-03-23T14:16:32;8.30;99.90
17202;DHT22;8717;53.588;10.176;2024-03-23T14:18:58;8.30;99.90
17202;DHT22;8717;53.588;10.176;2024-03-23T14:21:23;8.40;99.90
17202;DHT22;8717;53.588;10.176;2024-03-23T14:23:49;8.40;99.90
17202;DHT22;8717;53.588;10.176;2024-03-23T14:26:15;8.50;99.90
17202;DHT22;8717;53.588;10.176;2024-03-23T14:28:41;8.60;99.90
17202;DHT22;8717;53.588;10.176;2024-03-23T14:31:06;8.80;99.90
17202;DHT22;8717;53.588;10.176;2024-03-23T14:33:32;9.00;99.90
17202;DHT22;8717;53.588;10.176;2024-03-23T14:35:57;9.10;99.90
17202;DHT22;8717;53.588;10.176;2024-03-23T14:38:23;9.30;99.90
17202;DHT22;8717;53.588;10.176;2024-03-23T14:40:49;9.30;99.90
17202;DHT22;8717;53.588;10.176;2024-03-23T14:43:15;9.40;99.90
17202;DHT22;8717;53.588;10.176;2024-03-23T14:46:09;9.40;99.90
17202;DHT22;8717;53.588;10.176;2024-03-23T14:48:35;9.40;99.90
17202;DHT22;8717;53.588;10.176;2024-03-23T14:51:02;9.40;99.90
17202;DHT22;8717;53.588;10.176;2024-03-23T14:53:27;9.30;99.90
17202;DHT22;8717;53.588;10.176;2024-03-23T14:55:54;9.30;99.90
17202;DHT22;8717;53.588;10.176;2024-03-23T14:58:20;9.20;99.90
17202;DHT22;8717;53.588;10.176;2024-03-23T15:00:45;9.20;99.90
17202;DHT22;8717;53.588;10.176;2024-03-23T15:03:11;9.10;99.90
17202;DHT22;8717;53.588;10.176;2024-03-23T15:05:36;9.10;99.90
17202;DHT22;8717;53.588;10.176;2024-03-23T15:08:02;9.00;99.90
17202;DHT22;8717;53.588;10.176;2024-03-23T15:10:28;8.90;99.90
17202;DHT22;8717;53.588;10.176;2024-03-23T15:12:53;8.80;99.90
17202;DHT22;8717;53.588;10.176;2024-03-23T15:15:19;8.60;99.90
17202;DHT22;8717;53.588;10.176;2024-03-23T15:17:44;8.50;99.90
17202;DHT22;8717;53.588;10.176;2024-03-23T15:20:10;8.30;99.90
17202;DHT22;8717;53.588;10.176;2024-03-23T15:22:36;8.20;99.90
17202;DHT22;8717;53.588;10.176;2024-03-23T15:25:01;8.00;99.90
17202;DHT22;8717;53.588;10.176;2024-03-23T15:27:27;7.90;99.90
17202;DHT22;8717;53.588;10.176;2024-03-23T15:29:52;7.80;99.90
17202;DHT22;8717;53.588;10.176;2024-03-23T15:32:18;7.70;99.90
17202;DHT22;8717;53.588;10.176;2024-03-23T15:34:43;7.50;99.90
17202;DHT22;8717;53.588;10.176;2024-03-23T15:37:09;7.50;99.90
17202;DHT22;8717;53.588;10.176;2024-03-23T15:39:34;7.40;99.90
17202;DHT22;8717;53.588;10.176;2024-03-23T15:41:59;7.30;99.90
17202;DHT22;8717;53.588;10.176;2024-03-23T15:44:25;7.30;99.90
17202;DHT22;8717;53.588;10.176;2024-03-23T15:46:50;7.30;99.90
17202;DHT22;8717;53.588;10.176;2024-03-23T15:49:16;7.40;99.90
17202;DHT22;8717;53.588;10.176;2024-03-23T15:51:41;7.40;99.90
17202;DHT22;8717;53.588;10.176;2024-03-23T15:54:07;7.40;99.90
17202;DHT22;8717;53.588;10.176;2024-03-23T15:56:32;7.40;99.90
17202;DHT22;8717;53.588;10.176;2024-03-23T15:58:58;7.40;99.90
17202;DHT22;8717;53.588;10.176;2024-03-23T16:01:23;7.40;99.90
17202;DHT22;8717;53.588;10.176;2024-03-23T16:03:49;7.30;99.90
17202;DHT22;8717;53.588;10.176;2024-03-23T16:06:14;7.30;99.90
17202;DHT22;8717;53.588;10.176;2024-03-23T16:08:40;7.20;99.90
17202;DHT22;8717;53.588;10.176;2024-03-23T16:11:06;7.10;99.90
17202;DHT22;8717;53.588;10.176;2024-03-23T16:13:33;7.00;99.90
17202;DHT22;8717;53.588;10.176;2024-03-23T16:16:03;7.00;99.90
17202;DHT22;8717;53.588;10.176;2024-03-23T16:18:29;6.90;99.90
17202;DHT22;8717;53.588;10.176;2024-03-23T16:21:00;6.90;99.90
17202;DHT22;8717;53.588;10.176;2024-03-23T16:23:26;6.90;99.90
17202;DHT22;8717;53.588;10.176;2024-03-23T16:25:54;6.90;99.90
17202;DHT22;8717;53.588;10.176;2024-03-23T16:28:20;6.80;99.90
17202;DHT22;8717;53.588;10.176;2024-03-23T16:30:45;6.80;99.90
17202;DHT22;8717;53.588;10.176;2024-03-23T16:33:11;6.80;99.90
17202;DHT22;8717;53.588;10.176;2024-03-23T16:35:36;6.80;99.90